Time;durP1;ratioP1;P1;durP2;ratioP2;P2;SDS_P1;SDS_P2;PMS_P1;PMS_P2;Temp;Humidity;BMP_temperature;BMP_pressure;BME280_temperature;BME280_humidity;BME280_pressure;Samples;Min_cycle;Max_cycle;Signal;HPM_P1;HPM_P2
2022/01/18 00:01:44;;;;;;;;;23.50;23.00;;;;;;;;5080342;27;51285;-53
2022/01/18 00:04:34;;;;;;;;;28.50;26.75;;;;;;;;5080324;27;51098;-55
2022/01/18 00:07:30;;;;;;;;;26.00;22.25;;;;;;;;5084098;27;51699;-51
2022/01/18 00:10:27;;;;;;;;;23.25;19.00;;;;;;;;5073203;27;51165;-50
2022/01/18 00:19:13;;;;;;;;;26.25;23.50;;;;;;;;5083058;27;51087;-54
2022/01/18 00:22:13;;;;;;;;;30.25;22.00;;;;;;;;5081491;27;51196;-53
2022/01/18 00:25:13;;;;;;;;;24.25;23.75;;;;;;;;5083913;27;51079;-52
2022/01/18 00:27:59;;;;;;;;;22.00;21.50;;;;;;;;5083083;27;51466;-53
2022/01/18 00:34:02;;;;;;;;;26.00;23.25;;;;;;;;5085854;27;51068;-51
2022/01/18 00:39:53;;;;;;;;;29.75;25.00;;;;;;;;5084395;27;51218;-52
2022/01/18 00:42:46;;;;;;;;;26.00;23.75;;;;;;;;5085305;27;51064;-54
2022/01/18 00:45:50;;;;;;;;;25.75;22.00;;;;;;;;5074361;27;51049;-51
2022/01/18 00:48:36;;;;;;;;;31.00;23.25;;;;;;;;5080866;27;51149;-50
2022/01/18 00:51:21;;;;;;;;;31.50;27.00;;;;;;;;5081656;27;51179;-51
2022/01/18 00:54:10;;;;;;;;;24.00;22.00;;;;;;;;5086147;27;51375;-54
2022/01/18 00:56:57;;;;;;;;;23.75;22.00;;;;;;;;5084169;27;51106;-54
2022/01/18 00:59:50;;;;;;;;;28.50;27.00;;;;;;;;5078861;27;51132;-50
2022/01/18 01:02:41;;;;;;;;;24.50;23.25;;;;;;;;5076588;27;51497;-53
2022/01/18 01:05:37;;;;;;;;;27.75;26.50;;;;;;;;5082799;27;51148;-57
2022/01/18 01:08:29;;;;;;;;;23.75;20.00;;;;;;;;5081769;27;51152;-54
2022/01/18 01:11:13;;;;;;;;;28.50;25.75;;;;;;;;5079195;27;51540;-57
2022/01/18 01:14:02;;;;;;;;;24.25;24.25;;;;;;;;5076374;27;51590;-54
2022/01/18 01:17:01;;;;;;;;;30.50;27.75;;;;;;;;5079673;27;51310;-53
2022/01/18 01:44:27;;;;;;;;;39.50;32.50;;;;;;;;5082310;27;50955;-57
2022/01/18 01:47:18;;;;;;;;;41.50;34.75;;;;;;;;5079342;27;51309;-51
2022/01/18 01:50:15;;;;;;;;;41.00;32.00;;;;;;;;5078619;27;51250;-54
2022/01/18 01:53:03;;;;;;;;;48.50;36.50;;;;;;;;5078378;27;51068;-50
2022/01/18 01:55:50;;;;;;;;;48.75;38.25;;;;;;;;5075933;27;51184;-49
2022/01/18 01:58:41;;;;;;;;;52.00;41.75;;;;;;;;5081502;27;51051;-54
2022/01/18 02:01:25;;;;;;;;;53.75;42.75;;;;;;;;5078840;27;51166;-53
2022/01/18 02:04:16;;;;;;;;;50.75;40.50;;;;;;;;5078245;27;51669;-50
2022/01/18 02:07:06;;;;;;;;;51.00;41.75;;;;;;;;5075483;27;51068;-50
2022/01/18 02:09:55;;;;;;;;;56.00;42.50;;;;;;;;5080254;27;51078;-52
2022/01/18 02:12:51;;;;;;;;;51.25;42.00;;;;;;;;5078122;27;51439;-52
2022/01/18 02:15:44;;;;;;;;;48.75;39.25;;;;;;;;5078066;27;51444;-56
2022/01/18 02:21:47;;;;;;;;;53.25;41.00;;;;;;;;5077661;27;52298;-51
2022/01/18 02:24:42;;;;;;;;;47.50;40.25;;;;;;;;5082171;27;51555;-52
2022/01/18 02:27:28;;;;;;;;;46.50;37.75;;;;;;;;5082601;27;51216;-56
2022/01/18 02:30:15;;;;;;;;;46.00;38.00;;;;;;;;5081863;27;51584;-51
2022/01/18 02:33:03;;;;;;;;;46.25;39.50;;;;;;;;5085445;27;51390;-53
2022/01/18 02:35:50;;;;;;;;;46.25;36.00;;;;;;;;5081075;27;51173;-53
2022/01/18 02:38:39;;;;;;;;;45.50;37.25;;;;;;;;5082397;27;51033;-52
2022/01/18 02:41:44;;;;;;;;;48.75;39.25;;;;;;;;5082292;27;51162;-53
2022/01/18 02:44:31;;;;;;;;;45.50;37.25;;;;;;;;5068427;27;51261;-48
2022/01/18 02:47:30;;;;;;;;;46.00;38.25;;;;;;;;5078796;27;51116;-53
2022/01/18 02:50:14;;;;;;;;;39.25;33.00;;;;;;;;5084478;27;51557;-52
2022/01/18 02:53:03;;;;;;;;;41.50;35.50;;;;;;;;5082480;27;51167;-53
2022/01/18 02:55:58;;;;;;;;;40.75;34.50;;;;;;;;5081912;27;51720;-52
2022/01/18 02:58:47;;;;;;;;;45.50;35.75;;;;;;;;5079092;27;51034;-53
2022/01/18 03:04:47;;;;;;;;;47.00;38.00;;;;;;;;5083913;27;51368;-56
2022/01/18 03:07:36;;;;;;;;;50.25;39.75;;;;;;;;5082640;27;51457;-51
2022/01/18 03:10:21;;;;;;;;;47.50;39.25;;;;;;;;5086599;27;51596;-53
2022/01/18 03:13:06;;;;;;;;;43.00;34.00;;;;;;;;5080842;27;51150;-54
2022/01/18 03:15:52;;;;;;;;;47.25;38.00;;;;;;;;5081120;27;51464;-56
2022/01/18 03:18:57;;;;;;;;;48.25;38.50;;;;;;;;5082033;27;51184;-53
2022/01/18 03:21:42;;;;;;;;;51.50;41.50;;;;;;;;5086257;27;51156;-54
2022/01/18 03:31:00;;;;;;;;;48.75;39.00;;;;;;;;5082483;27;51089;-53
2022/01/18 03:33:46;;;;;;;;;46.75;37.25;;;;;;;;5083435;27;51249;-54
2022/01/18 03:36:40;;;;;;;;;49.25;39.00;;;;;;;;5082154;27;51142;-57
2022/01/18 03:39:25;;;;;;;;;49.75;40.50;;;;;;;;5078577;27;51190;-50
2022/01/18 03:45:27;;;;;;;;;49.25;38.25;;;;;;;;5080211;27;51142;-53
2022/01/18 03:48:17;;;;;;;;;53.50;42.00;;;;;;;;5081190;27;51620;-53
2022/01/18 03:51:04;;;;;;;;;50.50;40.00;;;;;;;;5079110;27;51528;-52
2022/01/18 03:54:03;;;;;;;;;47.50;40.00;;;;;;;;5078937;27;51060;-52
2022/01/18 03:56:49;;;;;;;;;51.50;41.75;;;;;;;;5082558;27;51075;-54
2022/01/18 03:59:34;;;;;;;;;49.25;38.50;;;;;;;;5081891;27;51072;-55
2022/01/18 04:02:21;;;;;;;;;48.50;39.50;;;;;;;;5076741;27;51615;-55
2022/01/18 04:05:11;;;;;;;;;51.75;39.75;;;;;;;;5076459;27;51354;-53
2022/01/18 04:08:13;;;;;;;;;50.00;38.50;;;;;;;;5078022;27;50966;-55
2022/01/18 04:10:58;;;;;;;;;44.50;35.75;;;;;;;;5082087;27;51163;-54
2022/01/18 04:13:55;;;;;;;;;51.75;41.25;;;;;;;;5079076;27;52493;-54
2022/01/18 04:16:58;;;;;;;;;52.75;42.00;;;;;;;;5085328;27;51105;-53
2022/01/18 04:29:02;;;;;;;;;46.50;36.75;;;;;;;;5085447;27;51283;-50
2022/01/18 04:31:48;;;;;;;;;50.25;39.00;;;;;;;;5089093;27;51244;-52
2022/01/18 04:34:38;;;;;;;;;47.00;37.75;;;;;;;;5083881;27;51329;-53
2022/01/18 04:37:32;;;;;;;;;45.50;37.50;;;;;;;;5081921;27;53141;-49
2022/01/18 04:40:19;;;;;;;;;45.75;36.25;;;;;;;;5081112;27;52094;-53
2022/01/18 04:43:14;;;;;;;;;47.25;38.50;;;;;;;;5080295;27;51044;-54
2022/01/18 04:49:08;;;;;;;;;50.00;37.25;;;;;;;;5082307;27;51555;-55
2022/01/18 04:51:56;;;;;;;;;48.00;38.00;;;;;;;;5080378;27;51108;-55
2022/01/18 04:54:44;;;;;;;;;46.00;38.25;;;;;;;;5082071;27;51150;-53
2022/01/18 05:00:31;;;;;;;;;46.50;39.25;;;;;;;;5068747;27;51431;-55
2022/01/18 05:03:16;;;;;;;;;48.50;39.25;;;;;;;;5075052;27;51268;-53
2022/01/18 05:06:08;;;;;;;;;46.25;37.50;;;;;;;;5074240;27;51648;-56
2022/01/18 05:23:06;;;;;;;;;44.75;35.75;;;;;;;;5066069;28;51233;-52
2022/01/18 05:25:50;;;;;;;;;42.75;34.00;;;;;;;;5064564;28;51558;-49
2022/01/18 05:28:34;;;;;;;;;40.75;34.00;;;;;;;;5061477;28;51182;-49
2022/01/18 05:31:20;;;;;;;;;50.50;38.50;;;;;;;;5062404;28;51586;-50
2022/01/18 05:34:06;;;;;;;;;36.25;32.75;;;;;;;;5069463;28;51188;-53
2022/01/18 05:36:55;;;;;;;;;32.00;30.25;;;;;;;;5070425;28;51116;-51
2022/01/18 05:39:42;;;;;;;;;40.50;34.00;;;;;;;;5069541;28;51139;-50
2022/01/18 05:42:28;;;;;;;;;44.25;35.75;;;;;;;;5070792;28;51683;-52
2022/01/18 05:45:24;;;;;;;;;45.25;35.50;;;;;;;;5059605;28;51154;-52
2022/01/18 05:48:10;;;;;;;;;44.00;36.00;;;;;;;;5069706;28;51105;-47
2022/01/18 05:50:59;;;;;;;;;46.75;38.25;;;;;;;;5063734;28;51494;-46
2022/01/18 05:53:48;;;;;;;;;47.50;38.75;;;;;;;;5055200;28;51155;-49
2022/01/18 05:56:54;;;;;;;;;43.50;36.50;;;;;;;;5055603;28;51101;-48
2022/01/18 05:59:44;;;;;;;;;44.75;34.50;;;;;;;;5054943;28;51077;-48
2022/01/18 06:02:41;;;;;;;;;53.75;41.25;;;;;;;;5054733;28;50995;-48
2022/01/18 06:08:44;;;;;;;;;49.25;39.25;;;;;;;;5055341;28;51170;-47
2022/01/18 06:11:28;;;;;;;;;42.75;35.00;;;;;;;;5068329;28;51171;-48
2022/01/18 06:14:13;;;;;;;;;46.75;37.50;;;;;;;;5056287;28;51137;-46
2022/01/18 06:16:59;;;;;;;;;52.75;40.00;;;;;;;;5057594;28;51915;-46
2022/01/18 06:19:54;;;;;;;;;46.75;35.50;;;;;;;;5051235;28;51104;-47
2022/01/18 06:22:51;;;;;;;;;47.75;38.00;;;;;;;;5047814;28;51256;-45
2022/01/18 06:25:51;;;;;;;;;54.75;43.25;;;;;;;;5043581;28;51109;-44
2022/01/18 06:28:58;;;;;;;;;53.25;43.50;;;;;;;;5044584;28;51173;-45
2022/01/18 06:31:46;;;;;;;;;53.25;42.50;;;;;;;;5046020;28;51636;-45
2022/01/18 06:34:31;;;;;;;;;56.00;43.50;;;;;;;;5049046;28;51679;-46
2022/01/18 06:37:30;;;;;;;;;59.00;44.50;;;;;;;;5046717;28;51258;-45
2022/01/18 06:40:14;;;;;;;;;56.50;46.00;;;;;;;;5045551;28;51075;-45
2022/01/18 06:43:13;;;;;;;;;90.25;78.00;;;;;;;;5049892;28;51572;-46
2022/01/18 06:46:09;;;;;;;;;57.75;45.50;;;;;;;;5048639;28;51105;-46
2022/01/18 06:48:54;;;;;;;;;63.25;50.25;;;;;;;;5044284;28;51202;-45
2022/01/18 06:51:48;;;;;;;;;63.75;48.75;;;;;;;;5049035;28;51066;-44
2022/01/18 06:54:44;;;;;;;;;71.25;60.75;;;;;;;;5047325;28;51218;-45
2022/01/18 06:57:41;;;;;;;;;70.25;52.00;;;;;;;;5045982;28;51525;-47
2022/01/18 07:00:26;;;;;;;;;60.75;48.25;;;;;;;;5046165;28;51561;-46
2022/01/18 07:03:11;;;;;;;;;58.50;44.25;;;;;;;;5046877;28;51140;-46
2022/01/18 07:05:56;;;;;;;;;58.50;46.50;;;;;;;;5045128;28;51146;-46
2022/01/18 07:08:42;;;;;;;;;58.50;45.25;;;;;;;;5048281;28;51117;-45
2022/01/18 07:11:28;;;;;;;;;59.00;47.75;;;;;;;;5036570;28;51154;-44
2022/01/18 07:14:14;;;;;;;;;53.25;43.50;;;;;;;;5039631;28;51570;-46
2022/01/18 07:16:59;;;;;;;;;55.50;44.00;;;;;;;;5039664;28;51111;-45
2022/01/18 07:19:43;;;;;;;;;56.00;43.50;;;;;;;;5041311;28;51031;-46
2022/01/18 07:22:50;;;;;;;;;56.50;45.25;;;;;;;;5043014;28;51097;-45
2022/01/18 07:25:47;;;;;;;;;55.25;44.25;;;;;;;;5045221;28;51132;-46
2022/01/18 07:28:32;;;;;;;;;56.75;45.25;;;;;;;;5039538;28;51149;-48
2022/01/18 07:31:27;;;;;;;;;55.50;44.50;;;;;;;;5039957;28;51025;-47
2022/01/18 07:34:14;;;;;;;;;55.25;42.75;;;;;;;;5042371;28;51248;-45
2022/01/18 07:37:02;;;;;;;;;54.00;42.75;;;;;;;;5040988;28;51110;-45
2022/01/18 07:39:59;;;;;;;;;54.50;43.50;;;;;;;;5044870;28;51027;-46
2022/01/18 07:42:45;;;;;;;;;56.25;45.25;;;;;;;;5059269;28;51046;-48
2022/01/18 07:45:34;;;;;;;;;59.00;47.00;;;;;;;;5041063;28;51118;-46
2022/01/18 07:48:23;;;;;;;;;63.50;47.50;;;;;;;;5041149;28;51660;-46
2022/01/18 07:51:08;;;;;;;;;57.75;46.00;;;;;;;;5038785;28;51249;-45
2022/01/18 07:53:52;;;;;;;;;51.75;42.00;;;;;;;;5051708;28;51171;-47
2022/01/18 07:56:47;;;;;;;;;49.75;39.75;;;;;;;;5039816;28;51095;-45
2022/01/18 07:59:45;;;;;;;;;55.00;44.50;;;;;;;;5056849;28;51116;-45
2022/01/18 08:02:31;;;;;;;;;58.00;43.00;;;;;;;;5051380;28;51126;-45
2022/01/18 08:05:15;;;;;;;;;56.25;44.50;;;;;;;;5059583;28;51123;-46
2022/01/18 08:08:00;;;;;;;;;55.75;44.50;;;;;;;;5059146;28;51036;-45
2022/01/18 08:10:51;;;;;;;;;50.00;39.50;;;;;;;;5049060;28;51232;-46
2022/01/18 08:13:57;;;;;;;;;52.25;41.25;;;;;;;;5038193;28;51440;-46
2022/01/18 08:17:24;;;;;;;;;52.50;41.00;;;;;;;;5054506;28;51010;-45
2022/01/18 08:19:50;;;;;;;;;47.50;38.25;;;;;;;;5035462;28;51180;-45
2022/01/18 08:22:55;;;;;;;;;47.00;37.00;;;;;;;;5044750;28;51105;-46
2022/01/18 08:25:44;;;;;;;;;50.50;38.00;;;;;;;;5050917;28;51173;-47
2022/01/18 08:28:35;;;;;;;;;47.75;36.50;;;;;;;;5042249;28;51084;-46
2022/01/18 08:31:19;;;;;;;;;47.75;37.25;;;;;;;;5038315;28;51767;-45
2022/01/18 08:34:05;;;;;;;;;50.00;39.75;;;;;;;;5053305;28;51187;-48
2022/01/18 08:36:59;;;;;;;;;48.50;38.75;;;;;;;;5057247;28;51230;-47
2022/01/18 08:39:45;;;;;;;;;51.00;40.25;;;;;;;;5038420;28;51089;-46
2022/01/18 08:42:31;;;;;;;;;48.50;38.25;;;;;;;;5035313;28;51221;-47
2022/01/18 08:45:17;;;;;;;;;47.75;38.00;;;;;;;;5037789;28;51125;-49
2022/01/18 08:48:02;;;;;;;;;49.00;38.00;;;;;;;;5041392;28;51218;-49
2022/01/18 08:50:49;;;;;;;;;47.00;37.50;;;;;;;;5043910;28;51023;-48
2022/01/18 08:53:38;;;;;;;;;41.75;35.50;;;;;;;;5043080;28;51180;-46
2022/01/18 08:56:48;;;;;;;;;46.00;34.75;;;;;;;;5046789;28;51091;-42
2022/01/18 08:59:35;;;;;;;;;42.50;35.00;;;;;;;;5038472;28;51276;-44
2022/01/18 09:02:19;;;;;;;;;44.75;36.75;;;;;;;;5038427;28;51190;-43
2022/01/18 09:05:03;;;;;;;;;44.25;35.50;;;;;;;;5041904;28;51108;-44
2022/01/18 09:07:48;;;;;;;;;48.25;39.00;;;;;;;;5038525;28;51681;-43
2022/01/18 09:10:34;;;;;;;;;48.25;36.50;;;;;;;;5038700;28;51220;-45
2022/01/18 09:13:22;;;;;;;;;43.75;35.50;;;;;;;;5038729;28;51075;-45
2022/01/18 09:16:11;;;;;;;;;41.00;34.75;;;;;;;;5037358;28;51475;-45
2022/01/18 09:18:56;;;;;;;;;44.25;35.50;;;;;;;;5037637;28;51185;-43
2022/01/18 09:21:47;;;;;;;;;43.50;35.75;;;;;;;;5040528;28;51125;-43
2022/01/18 09:24:32;;;;;;;;;47.00;35.50;;;;;;;;5044802;28;51184;-42
2022/01/18 09:27:16;;;;;;;;;45.00;36.50;;;;;;;;5037039;28;51047;-44
2022/01/18 09:30:02;;;;;;;;;44.25;36.25;;;;;;;;5037730;28;51468;-43
2022/01/18 09:32:47;;;;;;;;;46.25;37.75;;;;;;;;5055231;28;52172;-45
2022/01/18 09:35:35;;;;;;;;;49.75;40.50;;;;;;;;5037669;28;51102;-45
2022/01/18 09:38:20;;;;;;;;;46.50;38.25;;;;;;;;5037448;28;51097;-44
2022/01/18 09:41:29;;;;;;;;;44.00;35.25;;;;;;;;5045304;28;51190;-45
2022/01/18 09:44:16;;;;;;;;;43.25;36.50;;;;;;;;5047567;28;51244;-46
2022/01/18 09:47:03;;;;;;;;;50.25;38.75;;;;;;;;5040697;28;51634;-45
2022/01/18 09:49:48;;;;;;;;;43.25;35.00;;;;;;;;5037633;28;51056;-45
2022/01/18 09:52:51;;;;;;;;;36.50;31.50;;;;;;;;5037674;28;51150;-47
2022/01/18 09:55:36;;;;;;;;;42.00;34.25;;;;;;;;5048906;28;51176;-42
2022/01/18 09:58:21;;;;;;;;;46.50;37.50;;;;;;;;5053617;28;51649;-44
2022/01/18 10:01:07;;;;;;;;;36.75;32.75;;;;;;;;5042986;28;51177;-44
2022/01/18 10:03:51;;;;;;;;;49.50;37.75;;;;;;;;5051090;28;51328;-46
2022/01/18 10:06:46;;;;;;;;;46.75;35.75;;;;;;;;5059846;28;51116;-45
2022/01/18 10:09:34;;;;;;;;;43.75;35.25;;;;;;;;5061437;28;51110;-47
2022/01/18 10:12:38;;;;;;;;;48.25;35.25;;;;;;;;5061213;28;51140;-45
2022/01/18 10:15:22;;;;;;;;;42.50;36.00;;;;;;;;5056806;28;51127;-45
2022/01/18 10:18:08;;;;;;;;;44.75;34.75;;;;;;;;5042974;28;51101;-45
2022/01/18 10:21:08;;;;;;;;;37.50;33.50;;;;;;;;5041951;28;51419;-45
2022/01/18 10:24:09;;;;;;;;;41.50;35.00;;;;;;;;5044550;28;51101;-44
2022/01/18 10:26:58;;;;;;;;;43.25;36.75;;;;;;;;5040904;28;51221;-44
2022/01/18 10:29:45;;;;;;;;;48.75;38.25;;;;;;;;5042752;28;51469;-44
2022/01/18 10:32:40;;;;;;;;;46.75;36.50;;;;;;;;5041229;28;51185;-45
2022/01/18 10:35:40;;;;;;;;;42.00;35.75;;;;;;;;5043633;28;51225;-45
2022/01/18 10:38:25;;;;;;;;;42.50;35.75;;;;;;;;5042320;28;51737;-46
2022/01/18 10:41:30;;;;;;;;;50.75;40.50;;;;;;;;5052740;28;51472;-47
2022/01/18 10:44:25;;;;;;;;;42.75;34.50;;;;;;;;5060904;28;51073;-45
2022/01/18 10:47:12;;;;;;;;;40.50;33.50;;;;;;;;5049728;28;51104;-45
2022/01/18 10:49:57;;;;;;;;;38.50;33.25;;;;;;;;5044407;28;51146;-45
2022/01/18 10:52:43;;;;;;;;;44.00;34.00;;;;;;;;5040372;28;51129;-46
2022/01/18 10:55:31;;;;;;;;;41.00;32.25;;;;;;;;5048116;28;51160;-47
2022/01/18 10:58:26;;;;;;;;;44.50;34.75;;;;;;;;5057662;28;51290;-45
2022/01/18 11:01:31;;;;;;;;;42.50;33.75;;;;;;;;5060232;28;51013;-46
2022/01/18 11:04:16;;;;;;;;;39.00;34.00;;;;;;;;5052032;28;51054;-45
2022/01/18 11:07:04;;;;;;;;;36.00;31.75;;;;;;;;5048612;28;51126;-45
2022/01/18 11:09:49;;;;;;;;;43.50;33.75;;;;;;;;5040686;28;51223;-45
2022/01/18 11:12:57;;;;;;;;;37.75;31.25;;;;;;;;5040065;28;51708;-45
2022/01/18 11:16:12;;;;;;;;;36.25;31.75;;;;;;;;5040031;28;51621;-46
2022/01/18 11:19:07;;;;;;;;;37.00;32.50;;;;;;;;5039433;28;51106;-46
2022/01/18 11:21:59;;;;;;;;;42.50;31.75;;;;;;;;5040072;28;51168;-47
2022/01/18 11:24:45;;;;;;;;;43.00;35.25;;;;;;;;5042366;28;51408;-47
2022/01/18 11:27:35;;;;;;;;;41.25;34.25;;;;;;;;5044481;28;51396;-45
2022/01/18 11:30:24;;;;;;;;;43.25;35.25;;;;;;;;5046053;28;51569;-46
2022/01/18 11:33:44;;;;;;;;;42.75;35.00;;;;;;;;5058265;28;51077;-45
2022/01/18 11:36:33;;;;;;;;;45.00;36.00;;;;;;;;5043155;28;51449;-44
2022/01/18 11:39:35;;;;;;;;;41.75;35.25;;;;;;;;5046004;28;51647;-45
2022/01/18 11:42:37;;;;;;;;;37.00;30.75;;;;;;;;5039543;28;51590;-45
2022/01/18 11:45:31;;;;;;;;;38.25;30.75;;;;;;;;5039110;28;51236;-46
2022/01/18 11:48:22;;;;;;;;;42.00;34.00;;;;;;;;5046341;28;51014;-46
2022/01/18 11:51:17;;;;;;;;;31.75;29.00;;;;;;;;5038042;28;51225;-45
2022/01/18 11:54:23;;;;;;;;;55.75;44.25;;;;;;;;5043739;28;51172;-47
2022/01/18 11:57:22;;;;;;;;;30.25;29.25;;;;;;;;5038710;28;51742;-46
2022/01/18 12:00:25;;;;;;;;;32.75;30.00;;;;;;;;5041866;28;51214;-46
2022/01/18 12:03:27;;;;;;;;;35.50;29.75;;;;;;;;4994801;28;51157;-45
2022/01/18 12:06:32;;;;;;;;;28.25;27.75;;;;;;;;4967121;28;51255;-46
2022/01/18 12:09:36;;;;;;;;;31.25;28.00;;;;;;;;4975268;28;51694;-45
2022/01/18 12:12:40;;;;;;;;;35.50;30.50;;;;;;;;4968794;28;51094;-47
2022/01/18 12:15:38;;;;;;;;;41.75;29.25;;;;;;;;4966258;28;51119;-46
2022/01/18 12:18:25;;;;;;;;;35.00;31.00;;;;;;;;4966405;28;51145;-45
2022/01/18 12:21:32;;;;;;;;;41.00;32.75;;;;;;;;4968332;28;51184;-44
2022/01/18 12:24:19;;;;;;;;;40.50;34.25;;;;;;;;4967818;28;51578;-49
2022/01/18 12:27:22;;;;;;;;;38.25;32.50;;;;;;;;4972489;28;51187;-48
2022/01/18 12:30:54;;;;;;;;;34.25;30.50;;;;;;;;4969478;28;51176;-46
2022/01/18 12:33:44;;;;;;;;;39.00;32.00;;;;;;;;4972009;28;51059;-47
2022/01/18 12:36:31;;;;;;;;;35.25;32.25;;;;;;;;4966708;28;51590;-46
2022/01/18 12:39:16;;;;;;;;;40.75;32.00;;;;;;;;4973263;28;51242;-44
2022/01/18 12:42:19;;;;;;;;;37.25;33.00;;;;;;;;4974129;28;51057;-45
2022/01/18 12:45:24;;;;;;;;;41.00;34.25;;;;;;;;4973973;28;51190;-46
2022/01/18 12:48:15;;;;;;;;;39.25;32.00;;;;;;;;4976174;28;51055;-46
2022/01/18 12:51:07;;;;;;;;;42.50;33.75;;;;;;;;4973370;28;51324;-44
2022/01/18 12:53:51;;;;;;;;;44.50;35.00;;;;;;;;4976067;28;51157;-45
2022/01/18 12:56:36;;;;;;;;;36.25;32.00;;;;;;;;4966491;28;51663;-44
2022/01/18 12:59:22;;;;;;;;;36.25;32.00;;;;;;;;4961979;28;51202;-46
2022/01/18 13:02:19;;;;;;;;;31.00;29.50;;;;;;;;4960334;28;50994;-44
2022/01/18 13:05:04;;;;;;;;;31.75;30.25;;;;;;;;4974354;28;51224;-45
2022/01/18 13:07:52;;;;;;;;;31.75;29.25;;;;;;;;4964687;28;51251;-45
2022/01/18 13:10:41;;;;;;;;;34.75;29.75;;;;;;;;4960183;28;51124;-43
2022/01/18 13:13:29;;;;;;;;;35.25;30.50;;;;;;;;4962286;28;51201;-44
2022/01/18 13:25:13;;;;;;;;;32.00;28.50;;;;;;;;4977198;28;51159;-46
2022/01/18 13:28:02;;;;;;;;;28.25;28.00;;;;;;;;4960830;28;51614;-45
2022/01/18 13:30:46;;;;;;;;;37.25;31.25;;;;;;;;4965437;28;51196;-46
2022/01/18 13:33:47;;;;;;;;;27.50;27.25;;;;;;;;4978899;28;51113;-45
2022/01/18 13:36:34;;;;;;;;;28.50;25.75;;;;;;;;4977439;28;51367;-45
2022/01/18 13:39:37;;;;;;;;;34.50;28.25;;;;;;;;4971121;28;51216;-44
2022/01/18 13:42:31;;;;;;;;;35.50;29.00;;;;;;;;4969279;28;51122;-44
2022/01/18 13:45:18;;;;;;;;;33.75;30.25;;;;;;;;4977572;28;51056;-43
2022/01/18 13:48:06;;;;;;;;;32.25;30.25;;;;;;;;4977633;28;51460;-47
2022/01/18 13:50:51;;;;;;;;;38.25;31.50;;;;;;;;4977148;28;51335;-47
2022/01/18 13:53:36;;;;;;;;;32.00;29.50;;;;;;;;4963166;28;51929;-45
2022/01/18 13:56:23;;;;;;;;;36.50;31.25;;;;;;;;4962615;28;51075;-44
2022/01/18 13:59:07;;;;;;;;;39.00;31.00;;;;;;;;4973344;28;51077;-43
2022/01/18 14:01:53;;;;;;;;;38.00;30.50;;;;;;;;4980098;28;51180;-44
2022/01/18 14:04:38;;;;;;;;;28.25;28.25;;;;;;;;4972318;28;51159;-46
2022/01/18 14:07:29;;;;;;;;;31.75;29.25;;;;;;;;4968630;28;51661;-45
2022/01/18 14:10:15;;;;;;;;;34.50;30.75;;;;;;;;4980453;28;51148;-45
2022/01/18 14:13:08;;;;;;;;;37.75;32.00;;;;;;;;4968045;28;51502;-43
2022/01/18 14:16:24;;;;;;;;;30.75;28.00;;;;;;;;4963419;28;51312;-44
2022/01/18 14:19:19;;;;;;;;;34.25;29.25;;;;;;;;4967389;28;51602;-44
2022/01/18 14:22:26;;;;;;;;;29.75;28.25;;;;;;;;4973238;28;51170;-44
2022/01/18 14:25:13;;;;;;;;;27.75;26.75;;;;;;;;4964085;28;51749;-44
2022/01/18 14:28:11;;;;;;;;;28.75;26.75;;;;;;;;4975904;28;51068;-48
2022/01/18 14:31:05;;;;;;;;;32.75;28.75;;;;;;;;4969989;28;51098;-45
2022/01/18 14:34:10;;;;;;;;;34.25;29.50;;;;;;;;4966381;28;51490;-44
2022/01/18 14:37:02;;;;;;;;;30.50;27.75;;;;;;;;4967802;28;51356;-47
2022/01/18 14:40:00;;;;;;;;;30.50;27.75;;;;;;;;4977878;28;51108;-47
2022/01/18 14:42:49;;;;;;;;;31.50;27.75;;;;;;;;4981113;28;51116;-43
2022/01/18 14:48:40;;;;;;;;;28.50;26.25;;;;;;;;4964794;28;51518;-45
2022/01/18 14:51:39;;;;;;;;;27.50;26.00;;;;;;;;4975877;28;51140;-46
2022/01/18 14:54:30;;;;;;;;;32.50;25.50;;;;;;;;4980441;28;51430;-47
2022/01/18 14:57:15;;;;;;;;;32.25;27.50;;;;;;;;4973293;28;51453;-45
2022/01/18 15:00:02;;;;;;;;;32.25;27.25;;;;;;;;4961431;28;51097;-47
2022/01/18 15:02:47;;;;;;;;;27.25;24.25;;;;;;;;4960730;28;51165;-45
2022/01/18 15:05:33;;;;;;;;;28.25;24.75;;;;;;;;4962754;28;51097;-45
2022/01/18 15:08:19;;;;;;;;;30.00;28.00;;;;;;;;4963357;28;51373;-45
2022/01/18 15:11:04;;;;;;;;;32.00;21.50;;;;;;;;4962132;28;51627;-48
2022/01/18 15:13:53;;;;;;;;;25.75;23.25;;;;;;;;4970310;28;51187;-45
2022/01/18 15:16:41;;;;;;;;;28.50;26.75;;;;;;;;4975519;28;51163;-44
2022/01/18 15:19:25;;;;;;;;;33.25;26.25;;;;;;;;4979224;28;51133;-46
2022/01/18 15:22:23;;;;;;;;;28.75;27.50;;;;;;;;4972842;28;51190;-48
2022/01/18 15:25:08;;;;;;;;;26.00;23.25;;;;;;;;4974773;28;51159;-44
2022/01/18 15:27:52;;;;;;;;;21.00;19.00;;;;;;;;4964752;28;51120;-45
2022/01/18 15:30:38;;;;;;;;;25.75;24.25;;;;;;;;4960203;28;51354;-43
2022/01/18 15:33:23;;;;;;;;;24.75;24.75;;;;;;;;4961265;28;51239;-44
2022/01/18 15:36:09;;;;;;;;;31.25;28.50;;;;;;;;4974438;28;51698;-47
2022/01/18 15:38:54;;;;;;;;;29.75;26.25;;;;;;;;4965446;28;52218;-46
2022/01/18 15:41:39;;;;;;;;;28.00;26.50;;;;;;;;4972399;28;51219;-47
2022/01/18 15:44:25;;;;;;;;;35.00;31.00;;;;;;;;4966801;28;51273;-45
2022/01/18 15:47:13;;;;;;;;;30.50;27.25;;;;;;;;4961991;28;51138;-45
2022/01/18 15:49:57;;;;;;;;;29.50;27.00;;;;;;;;4959731;28;51232;-44
2022/01/18 15:52:44;;;;;;;;;30.25;27.00;;;;;;;;4976936;28;51099;-45
2022/01/18 15:55:30;;;;;;;;;25.75;23.75;;;;;;;;4964261;28;51134;-45
2022/01/18 15:58:25;;;;;;;;;30.50;28.25;;;;;;;;4965186;28;51257;-45
2022/01/18 16:01:10;;;;;;;;;29.25;24.50;;;;;;;;4959746;28;51448;-45
2022/01/18 16:03:56;;;;;;;;;27.75;25.25;;;;;;;;4969704;28;51170;-44
2022/01/18 16:06:42;;;;;;;;;31.75;27.50;;;;;;;;4968408;28;51216;-44
2022/01/18 16:09:26;;;;;;;;;22.50;22.50;;;;;;;;4972297;28;51088;-45
2022/01/18 16:12:24;;;;;;;;;28.50;23.75;;;;;;;;4964652;28;51228;-43
2022/01/18 16:15:08;;;;;;;;;30.50;24.25;;;;;;;;4962273;28;51155;-44
2022/01/18 16:17:54;;;;;;;;;26.25;21.75;;;;;;;;4973434;28;51180;-46
2022/01/18 16:20:41;;;;;;;;;25.25;24.75;;;;;;;;4970865;28;51221;-44
2022/01/18 16:23:52;;;;;;;;;31.25;28.50;;;;;;;;4973733;28;51075;-44
2022/01/18 16:26:38;;;;;;;;;25.25;19.25;;;;;;;;4960328;28;51536;-43
2022/01/18 16:29:25;;;;;;;;;29.00;25.75;;;;;;;;4960044;28;51053;-44
2022/01/18 16:32:09;;;;;;;;;29.00;26.25;;;;;;;;4965430;28;51134;-46
2022/01/18 16:34:54;;;;;;;;;25.25;23.25;;;;;;;;4959635;28;51089;-45
2022/01/18 16:37:47;;;;;;;;;29.75;24.75;;;;;;;;4974613;28;51173;-46
2022/01/18 16:40:32;;;;;;;;;16.00;14.00;;;;;;;;4970280;28;51185;-45
2022/01/18 16:43:16;;;;;;;;;33.25;25.25;;;;;;;;4973075;28;51109;-47
2022/01/18 16:46:06;;;;;;;;;26.25;25.00;;;;;;;;4961273;28;51112;-48
2022/01/18 16:48:52;;;;;;;;;27.75;24.00;;;;;;;;4963945;28;51077;-46
2022/01/18 16:51:39;;;;;;;;;24.25;22.25;;;;;;;;4966542;28;51713;-44
2022/01/18 16:54:24;;;;;;;;;25.25;23.50;;;;;;;;4959609;28;51133;-46
2022/01/18 16:57:09;;;;;;;;;27.25;25.00;;;;;;;;4977241;28;51348;-47
2022/01/18 16:59:55;;;;;;;;;18.50;18.50;;;;;;;;4978953;28;51341;-48
2022/01/18 17:02:41;;;;;;;;;31.00;28.25;;;;;;;;4978116;28;51109;-45
2022/01/18 17:05:27;;;;;;;;;27.75;25.25;;;;;;;;4978738;28;51246;-49
2022/01/18 17:08:19;;;;;;;;;24.25;20.75;;;;;;;;4967398;28;51340;-47
2022/01/18 17:11:05;;;;;;;;;28.25;24.50;;;;;;;;4966787;28;51260;-45
2022/01/18 17:13:51;;;;;;;;;30.25;27.75;;;;;;;;4959979;28;51112;-48
2022/01/18 17:16:41;;;;;;;;;45.00;36.25;;;;;;;;4968143;28;51688;-44
2022/01/18 17:19:27;;;;;;;;;40.75;34.00;;;;;;;;4972662;28;51243;-44
2022/01/18 17:22:14;;;;;;;;;43.75;33.50;;;;;;;;4961793;28;51172;-45
2022/01/18 17:25:07;;;;;;;;;36.25;31.00;;;;;;;;4963681;28;51595;-44
2022/01/18 17:27:57;;;;;;;;;29.00;28.25;;;;;;;;4971068;28;51954;-44
2022/01/18 17:30:45;;;;;;;;;32.00;29.00;;;;;;;;4967486;28;51335;-45
2022/01/18 17:33:40;;;;;;;;;32.00;29.00;;;;;;;;4970389;28;51187;-46
2022/01/18 17:36:24;;;;;;;;;27.00;23.75;;;;;;;;4976657;28;51164;-44
2022/01/18 17:39:10;;;;;;;;;31.75;26.50;;;;;;;;4977439;28;51208;-48
2022/01/18 17:41:54;;;;;;;;;27.25;25.50;;;;;;;;4969367;28;51092;-45
2022/01/18 17:44:39;;;;;;;;;23.25;21.75;;;;;;;;4974597;28;51193;-45
2022/01/18 17:47:27;;;;;;;;;28.00;26.00;;;;;;;;4968391;28;51166;-49
2022/01/18 17:50:13;;;;;;;;;24.00;23.50;;;;;;;;4970392;28;51190;-46
2022/01/18 17:53:00;;;;;;;;;32.25;27.00;;;;;;;;4976721;28;51118;-46
2022/01/18 17:55:45;;;;;;;;;24.00;22.25;;;;;;;;4969594;28;51205;-48
2022/01/18 17:58:39;;;;;;;;;33.50;29.25;;;;;;;;4969522;28;51113;-45
2022/01/18 18:01:31;;;;;;;;;27.00;22.50;;;;;;;;4962758;28;51560;-48
2022/01/18 18:04:18;;;;;;;;;29.00;26.50;;;;;;;;4978233;28;51208;-45
2022/01/18 18:07:07;;;;;;;;;29.75;27.25;;;;;;;;4971809;28;51119;-46
2022/01/18 18:10:02;;;;;;;;;27.00;24.75;;;;;;;;4918690;28;52043;-45